createdAt,value
2018-09-26T00:01:57.685Z,99.90
2018-09-26T00:04:29.881Z,99.90
2018-09-26T00:06:57.927Z,99.90
2018-09-26T00:09:25.843Z,99.90
2018-09-26T00:11:53.475Z,99.90
2018-09-26T00:14:21.057Z,99.90
2018-09-26T00:16:48.569Z,99.90
2018-09-26T00:19:16.031Z,99.90
2018-09-26T00:21:43.503Z,99.90
2018-09-26T00:24:10.992Z,99.90
2018-09-26T00:26:38.536Z,99.90
2018-09-26T00:29:06.059Z,99.90
2018-09-26T00:31:33.565Z,99.90
2018-09-26T00:34:01.037Z,99.90
2018-09-26T00:36:28.501Z,99.90
2018-09-26T00:38:55.981Z,99.90
2018-09-26T00:41:23.445Z,99.90
2018-09-26T00:43:50.933Z,99.90
2018-09-26T00:46:18.401Z,99.90
2018-09-26T00:48:45.880Z,99.90
2018-09-26T00:51:13.413Z,99.90
2018-09-26T00:53:40.973Z,99.90
2018-09-26T00:56:08.427Z,99.90
2018-09-26T00:58:35.903Z,99.90
2018-09-26T01:01:03.408Z,99.90
2018-09-26T01:03:31.069Z,99.90
2018-09-26T01:05:58.536Z,99.90
2018-09-26T01:08:26.126Z,99.90
2018-09-26T01:10:53.809Z,99.90
2018-09-26T01:13:21.300Z,99.90
2018-09-26T01:15:48.829Z,99.90
2018-09-26T01:18:16.345Z,99.90
2018-09-26T01:20:44.138Z,99.90
2018-09-26T01:23:11.988Z,99.90
2018-09-26T01:25:39.958Z,99.90
2018-09-26T01:28:07.444Z,99.90
2018-09-26T01:30:34.895Z,99.90
2018-09-26T01:33:02.696Z,99.90
2018-09-26T01:35:30.195Z,99.90
2018-09-26T01:37:57.673Z,99.90
2018-09-26T01:40:25.133Z,99.90
2018-09-26T01:42:52.592Z,99.90
2018-09-26T01:45:20.036Z,99.90
2018-09-26T01:47:47.505Z,99.90
2018-09-26T01:50:15.080Z,99.90
2018-09-26T01:52:42.597Z,99.90
2018-09-26T01:55:10.076Z,99.90
2018-09-26T01:57:37.563Z,99.90
2018-09-26T02:00:05.826Z,99.90
2018-09-26T02:02:33.312Z,99.90
2018-09-26T02:05:00.773Z,99.90
2018-09-26T02:07:28.222Z,99.90
2018-09-26T02:09:55.817Z,99.90
2018-09-26T02:12:23.275Z,99.90
2018-09-26T02:14:50.834Z,99.90
2018-09-26T02:17:18.268Z,99.90
2018-09-26T02:19:45.731Z,99.90
2018-09-26T02:22:13.176Z,99.90
2018-09-26T02:24:40.661Z,99.90
2018-09-26T02:27:10.624Z,99.90
2018-09-26T02:29:38.133Z,99.90
2018-09-26T02:32:05.918Z,99.90
2018-09-26T02:34:33.429Z,99.90
2018-09-26T02:37:00.861Z,99.90
2018-09-26T02:39:28.372Z,99.90
2018-09-26T02:41:55.933Z,99.90
2018-09-26T02:44:23.387Z,99.90
2018-09-26T02:46:50.948Z,99.90
2018-09-26T02:49:18.474Z,99.90
2018-09-26T02:51:45.921Z,99.90
2018-09-26T02:54:13.420Z,99.90
2018-09-26T02:56:40.897Z,99.90
2018-09-26T02:59:08.408Z,99.90
2018-09-26T03:01:35.864Z,99.90
2018-09-26T03:04:03.457Z,99.90
2018-09-26T03:06:31.013Z,99.90
2018-09-26T03:08:58.540Z,99.90
2018-09-26T03:11:26.100Z,99.90
2018-09-26T03:13:53.562Z,99.90
2018-09-26T03:16:21.057Z,99.90
2018-09-26T03:18:48.557Z,99.90
2018-09-26T03:21:16.091Z,99.90
2018-09-26T03:23:43.585Z,99.90
2018-09-26T03:26:11.077Z,99.90
2018-09-26T03:28:38.844Z,99.90
2018-09-26T03:31:06.607Z,99.90
2018-09-26T03:33:34.144Z,99.90
2018-09-26T03:36:01.623Z,99.90
2018-09-26T03:38:29.184Z,99.90
2018-09-26T03:40:56.713Z,99.90
2018-09-26T03:43:24.144Z,99.90
2018-09-26T03:45:51.936Z,99.90
2018-09-26T03:48:19.522Z,99.90
2018-09-26T03:50:47.088Z,99.90
2018-09-26T03:53:14.537Z,99.90
2018-09-26T03:55:41.995Z,99.90
2018-09-26T03:58:09.509Z,99.90
2018-09-26T04:00:37.232Z,99.90
2018-09-26T04:03:04.733Z,99.90
2018-09-26T04:05:32.302Z,99.90
2018-09-26T04:07:59.766Z,99.90
2018-09-26T04:10:27.243Z,99.90
2018-09-26T04:12:54.773Z,99.90
2018-09-26T04:15:22.266Z,99.90
2018-09-26T04:17:49.736Z,99.90
2018-09-26T04:20:17.331Z,99.90
2018-09-26T04:22:44.792Z,99.90
2018-09-26T04:25:12.329Z,99.90
2018-09-26T04:27:40.051Z,99.90
2018-09-26T04:30:07.524Z,99.90
2018-09-26T04:32:35.137Z,99.90
2018-09-26T04:35:02.742Z,99.90
2018-09-26T04:37:30.294Z,99.90
2018-09-26T04:39:57.854Z,99.90
2018-09-26T04:42:25.353Z,99.90
2018-09-26T04:44:52.831Z,99.90
2018-09-26T04:47:20.300Z,99.90
2018-09-26T04:49:47.835Z,99.90
2018-09-26T04:52:15.344Z,99.90
2018-09-26T04:54:42.801Z,99.90
2018-09-26T04:57:10.411Z,99.90
2018-09-26T04:59:37.869Z,99.90
2018-09-26T05:02:05.451Z,99.90
2018-09-26T05:04:32.924Z,99.90
2018-09-26T05:07:00.508Z,99.90
2018-09-26T05:09:27.941Z,99.90
2018-09-26T05:11:55.445Z,99.90
2018-09-26T05:14:22.906Z,99.90
2018-09-26T05:16:50.373Z,99.90
2018-09-26T05:19:17.860Z,99.90
2018-09-26T05:21:45.312Z,99.90
2018-09-26T05:24:12.781Z,99.90
2018-09-26T05:26:40.407Z,99.90
2018-09-26T05:29:07.906Z,99.90
2018-09-26T05:31:35.376Z,99.90
2018-09-26T05:34:02.848Z,99.90
2018-09-26T05:36:30.378Z,99.90
2018-09-26T05:38:57.885Z,99.90
2018-09-26T05:41:25.372Z,99.90
2018-09-26T05:43:54.928Z,99.90
2018-09-26T05:46:22.420Z,99.90
2018-09-26T05:48:49.950Z,99.90
2018-09-26T05:51:17.454Z,99.90
2018-09-26T05:53:44.891Z,99.90
2018-09-26T05:56:12.364Z,99.90
2018-09-26T05:58:39.842Z,99.90
2018-09-26T06:01:07.475Z,99.90
2018-09-26T06:03:34.959Z,99.90
2018-09-26T06:06:02.453Z,99.90
2018-09-26T06:08:29.912Z,99.90
2018-09-26T06:10:57.524Z,99.90
2018-09-26T06:13:24.981Z,99.90
2018-09-26T06:15:52.573Z,99.90
2018-09-26T06:18:20.026Z,99.90
2018-09-26T06:20:47.656Z,99.90
2018-09-26T06:23:15.091Z,99.90
2018-09-26T06:25:42.572Z,99.90
2018-09-26T06:28:09.997Z,99.90
2018-09-26T06:30:37.486Z,99.90
2018-09-26T06:33:04.908Z,99.90
2018-09-26T06:35:32.365Z,99.90
2018-09-26T06:37:59.828Z,99.90
2018-09-26T06:40:27.328Z,99.90
2018-09-26T06:42:55.214Z,99.90
2018-09-26T06:45:22.671Z,99.90
2018-09-26T06:47:50.311Z,99.90
2018-09-26T06:50:17.791Z,99.90
2018-09-26T06:52:45.285Z,99.90
2018-09-26T06:55:12.781Z,99.90
2018-09-26T06:57:40.259Z,99.90
2018-09-26T07:00:08.347Z,99.90
2018-09-26T07:02:35.971Z,99.90
2018-09-26T07:05:03.536Z,99.90
2018-09-26T07:07:31.090Z,99.90
2018-09-26T07:09:58.506Z,99.90
2018-09-26T07:12:25.981Z,99.90
2018-09-26T07:14:53.441Z,99.90
2018-09-26T07:17:20.939Z,99.90
2018-09-26T07:19:48.479Z,99.90
2018-09-26T07:22:16.037Z,99.90
2018-09-26T07:24:43.464Z,99.90
2018-09-26T07:27:10.947Z,99.90
2018-09-26T07:29:38.380Z,99.90
2018-09-26T07:32:06.001Z,99.90
2018-09-26T07:34:38.231Z,99.90
2018-09-26T07:37:06.041Z,99.90
2018-09-26T07:39:33.861Z,99.90
2018-09-26T07:42:01.346Z,99.90
2018-09-26T07:44:28.813Z,99.90
2018-09-26T07:46:56.300Z,99.90
2018-09-26T07:49:24.107Z,99.90
2018-09-26T07:51:51.586Z,99.90
2018-09-26T07:54:19.267Z,99.90
2018-09-26T07:56:47.328Z,99.90
2018-09-26T07:59:14.875Z,99.90
2018-09-26T08:01:42.510Z,99.90
2018-09-26T08:04:10.052Z,99.90
2018-09-26T08:06:37.533Z,99.90
2018-09-26T08:09:06.317Z,99.90
2018-09-26T08:11:33.992Z,99.90
2018-09-26T08:14:01.533Z,99.90
2018-09-26T08:16:29.049Z,99.90
2018-09-26T08:18:56.586Z,99.90
2018-09-26T08:21:24.054Z,99.90
2018-09-26T08:23:51.573Z,99.90
2018-09-26T08:26:18.988Z,99.90
2018-09-26T08:28:46.613Z,99.90
2018-09-26T08:31:14.142Z,99.90
2018-09-26T08:33:41.637Z,99.90
2018-09-26T08:36:09.165Z,99.90
2018-09-26T08:38:36.694Z,99.90
2018-09-26T08:41:04.167Z,99.90
2018-09-26T08:43:31.677Z,99.90
2018-09-26T08:45:59.142Z,99.90
2018-09-26T08:48:26.622Z,99.90
2018-09-26T08:50:54.104Z,99.90
2018-09-26T08:53:21.568Z,99.90
2018-09-26T08:55:49.025Z,99.90
2018-09-26T08:58:16.495Z,99.90
2018-09-26T09:00:48.581Z,99.90
2018-09-26T09:03:16.031Z,99.90
2018-09-26T09:05:43.735Z,99.90
2018-09-26T09:08:11.223Z,99.90
2018-09-26T09:10:38.685Z,99.90
2018-09-26T09:13:06.216Z,99.90
2018-09-26T09:15:33.790Z,99.90
2018-09-26T09:18:01.350Z,99.90
2018-09-26T09:20:28.841Z,99.90
2018-09-26T09:22:56.332Z,99.90
2018-09-26T09:25:23.787Z,99.90
2018-09-26T09:27:51.306Z,99.90
2018-09-26T09:30:18.817Z,99.90
2018-09-26T09:32:46.280Z,99.90
2018-09-26T09:35:13.816Z,99.90
2018-09-26T09:37:41.280Z,99.90
2018-09-26T09:40:08.780Z,99.90
2018-09-26T09:42:36.304Z,99.90
2018-09-26T09:45:03.871Z,99.90
2018-09-26T09:47:31.318Z,99.90
2018-09-26T09:49:58.808Z,99.90
2018-09-26T09:52:26.252Z,99.90
2018-09-26T09:54:53.730Z,99.90
2018-09-26T09:57:21.234Z,99.90
2018-09-26T09:59:48.709Z,99.90
2018-09-26T10:02:16.212Z,99.90
2018-09-26T10:04:43.788Z,99.90
2018-09-26T10:07:11.246Z,99.90
2018-09-26T10:09:38.733Z,99.90
2018-09-26T10:12:06.435Z,99.90
2018-09-26T10:14:33.924Z,99.90
2018-09-26T10:17:01.381Z,99.90
2018-09-26T10:19:29.280Z,99.90
2018-09-26T10:21:56.776Z,99.90
2018-09-26T10:24:24.265Z,99.90
2018-09-26T10:26:51.736Z,99.90
2018-09-26T10:29:19.232Z,99.90
2018-09-26T10:31:46.680Z,99.90
2018-09-26T10:34:14.220Z,99.90
2018-09-26T10:36:41.810Z,99.90
2018-09-26T10:39:09.947Z,99.90
2018-09-26T10:41:37.427Z,99.90
2018-09-26T10:44:05.153Z,99.90
2018-09-26T10:46:32.683Z,99.90
2018-09-26T10:49:00.457Z,99.90
2018-09-26T10:51:27.898Z,99.90
2018-09-26T10:53:55.360Z,99.90
2018-09-26T10:56:22.845Z,99.90
2018-09-26T10:58:50.325Z,99.40
2018-09-26T11:01:17.777Z,99.90
2018-09-26T11:03:45.233Z,99.50
2018-09-26T11:06:12.724Z,99.20
2018-09-26T11:08:40.284Z,99.10
2018-09-26T11:11:07.868Z,99.40
2018-09-26T11:13:35.330Z,99.30
2018-09-26T11:16:02.882Z,99.10
2018-09-26T11:18:30.640Z,99.00
2018-09-26T11:20:58.200Z,98.40
2018-09-26T11:23:25.656Z,98.90
2018-09-26T11:25:53.141Z,99.00
2018-09-26T11:28:20.616Z,98.70
2018-09-26T11:30:48.211Z,97.90
2018-09-26T11:33:15.757Z,97.90
2018-09-26T11:35:43.204Z,97.90
2018-09-26T11:38:10.676Z,97.40
2018-09-26T11:40:39.065Z,97.80
2018-09-26T11:43:06.599Z,97.40
2018-09-26T11:45:34.812Z,97.00
2018-09-26T11:48:02.310Z,97.60
2018-09-26T11:50:29.941Z,97.20
2018-09-26T11:52:57.585Z,97.60
2018-09-26T11:55:25.089Z,97.20
2018-09-26T11:57:52.522Z,97.30
2018-09-26T12:00:20.151Z,97.40
2018-09-26T12:02:47.680Z,96.40
2018-09-26T12:05:15.091Z,96.20
2018-09-26T12:07:42.542Z,96.10
2018-09-26T12:10:10.100Z,95.70
2018-09-26T12:12:37.602Z,96.10
2018-09-26T12:15:05.129Z,96.10
2018-09-26T12:17:32.590Z,95.80
2018-09-26T12:20:00.051Z,95.20
2018-09-26T12:22:27.570Z,95.30
2018-09-26T12:24:55.135Z,95.30
2018-09-26T12:27:22.593Z,95.30
2018-09-26T12:29:50.087Z,95.00
2018-09-26T12:32:17.571Z,94.90
2018-09-26T12:34:45.117Z,95.40
2018-09-26T12:37:12.560Z,94.50
2018-09-26T12:39:40.027Z,94.60
2018-09-26T12:42:07.591Z,94.80
2018-09-26T12:44:35.021Z,94.60
2018-09-26T12:47:02.530Z,94.10
2018-09-26T12:49:29.977Z,93.40
2018-09-26T12:51:57.456Z,93.00
2018-09-26T12:54:24.930Z,92.60
2018-09-26T12:56:52.430Z,92.00
2018-09-26T12:59:20.274Z,92.30
2018-09-26T13:01:47.764Z,92.30
2018-09-26T13:04:15.289Z,92.60
2018-09-26T13:06:43.049Z,92.30
2018-09-26T13:09:10.485Z,92.40
2018-09-26T13:11:38.042Z,91.90
2018-09-26T13:14:05.535Z,91.60
2018-09-26T13:16:33.039Z,92.00
2018-09-26T13:19:01.007Z,91.90
2018-09-26T13:21:28.415Z,91.10
2018-09-26T13:23:55.862Z,90.60
2018-09-26T13:26:23.417Z,90.50
2018-09-26T13:28:50.820Z,90.60
2018-09-26T13:31:18.340Z,90.40
2018-09-26T13:33:45.798Z,90.00
2018-09-26T13:36:13.287Z,90.40
2018-09-26T13:38:40.756Z,90.10
2018-09-26T13:41:08.229Z,90.30
2018-09-26T13:43:35.716Z,90.40
2018-09-26T13:46:03.272Z,90.10
2018-09-26T13:48:30.735Z,90.10
2018-09-26T13:50:58.241Z,90.60
2018-09-26T13:53:25.823Z,90.30
2018-09-26T13:55:53.287Z,89.90
2018-09-26T13:58:20.865Z,89.00
2018-09-26T14:00:48.334Z,88.40
2018-09-26T14:03:15.789Z,88.40
2018-09-26T14:05:43.311Z,88.20
2018-09-26T14:08:10.797Z,87.70
2018-09-26T14:10:38.443Z,88.60
2018-09-26T14:13:06.060Z,90.10
2018-09-26T14:15:33.498Z,90.00
2018-09-26T14:18:00.972Z,89.20
2018-09-26T14:20:46.054Z,88.80
2018-09-26T14:23:13.879Z,88.90
2018-09-26T14:25:41.660Z,88.70
2018-09-26T14:28:09.558Z,88.60
2018-09-26T14:30:37.490Z,89.40
2018-09-26T14:33:05.215Z,89.90
2018-09-26T14:35:32.967Z,90.10
2018-09-26T14:38:00.775Z,90.40
2018-09-26T14:40:28.572Z,90.50
2018-09-26T14:42:56.609Z,90.20
2018-09-26T14:45:24.393Z,90.30
2018-09-26T14:47:52.168Z,90.20
2018-09-26T14:50:22.149Z,90.20
2018-09-26T14:52:50.214Z,90.40
2018-09-26T14:55:17.984Z,90.60
2018-09-26T14:57:45.813Z,90.70
2018-09-26T15:00:14.165Z,90.90
2018-09-26T15:02:42.038Z,91.10
2018-09-26T15:05:09.849Z,90.80
2018-09-26T15:07:37.696Z,91.00
2018-09-26T15:10:06.653Z,91.20
2018-09-26T15:12:34.422Z,91.80
2018-09-26T15:15:02.361Z,91.80
2018-09-26T15:17:30.182Z,91.50
2018-09-26T15:19:58.019Z,91.60
2018-09-26T15:22:25.937Z,91.60
2018-09-26T15:24:53.909Z,91.90
2018-09-26T15:27:21.684Z,91.70
2018-09-26T15:29:49.504Z,91.70
2018-09-26T15:32:17.366Z,91.80
2018-09-26T15:34:45.175Z,91.90
2018-09-26T15:37:13.000Z,92.00
2018-09-26T15:39:40.772Z,92.30
2018-09-26T15:42:08.641Z,92.70
2018-09-26T15:44:36.373Z,92.60
2018-09-26T15:47:04.365Z,92.70
2018-09-26T15:49:32.170Z,92.80
2018-09-26T15:51:59.976Z,93.00
2018-09-26T15:54:28.066Z,93.10
2018-09-26T15:56:55.998Z,93.50
2018-09-26T15:59:23.847Z,93.20
2018-09-26T16:01:51.652Z,93.50
2018-09-26T16:04:23.732Z,93.60
2018-09-26T16:06:51.289Z,93.70
2018-09-26T16:09:18.769Z,94.00
2018-09-26T16:11:46.230Z,94.30
2018-09-26T16:14:13.786Z,94.30
2018-09-26T16:16:41.334Z,94.20
2018-09-26T16:19:08.859Z,94.40
2018-09-26T16:21:36.297Z,94.60
2018-09-26T16:24:03.799Z,94.80
2018-09-26T16:26:31.313Z,94.90
2018-09-26T16:28:59.014Z,95.20
2018-09-26T16:31:26.507Z,95.10
2018-09-26T16:33:54.551Z,95.10
2018-09-26T16:36:22.235Z,95.40
2018-09-26T16:38:49.749Z,95.50
2018-09-26T16:41:17.222Z,95.70
2018-09-26T16:43:44.779Z,95.60
2018-09-26T16:46:12.251Z,95.90
2018-09-26T16:48:40.045Z,95.70
2018-09-26T16:51:07.514Z,95.70
2018-09-26T16:53:35.008Z,95.90
2018-09-26T16:56:02.472Z,95.90
2018-09-26T16:58:29.953Z,96.00
2018-09-26T17:00:57.438Z,96.20
2018-09-26T17:03:24.903Z,96.20
2018-09-26T17:05:52.365Z,96.30
2018-09-26T17:08:20.020Z,96.30
2018-09-26T17:10:47.485Z,96.60
2018-09-26T17:13:15.409Z,96.80
2018-09-26T17:15:43.446Z,96.80
2018-09-26T17:18:10.940Z,97.00
2018-09-26T17:20:38.476Z,96.90
2018-09-26T17:23:06.020Z,97.00
2018-09-26T17:25:33.591Z,97.30
2018-09-26T17:28:01.101Z,97.20
2018-09-26T17:30:28.682Z,97.40
2018-09-26T17:32:56.182Z,97.60
2018-09-26T17:35:23.635Z,97.70
2018-09-26T17:37:51.088Z,97.70
2018-09-26T17:40:18.705Z,97.80
2018-09-26T17:42:46.189Z,97.90
2018-09-26T17:45:13.632Z,98.10
2018-09-26T17:47:41.141Z,98.10
2018-09-26T17:50:09.017Z,98.40
2018-09-26T17:52:36.547Z,98.40
2018-09-26T17:55:04.436Z,98.60
2018-09-26T17:57:31.964Z,98.80
2018-09-26T17:59:59.479Z,99.00
2018-09-26T18:02:26.977Z,99.00
2018-09-26T18:04:54.451Z,99.10
2018-09-26T18:07:21.993Z,99.30
2018-09-26T18:09:49.514Z,99.50
2018-09-26T18:12:17.072Z,99.50
2018-09-26T18:14:44.528Z,99.50
2018-09-26T18:17:12.020Z,99.60
2018-09-26T18:19:39.495Z,99.90
2018-09-26T18:22:07.041Z,99.90
2018-09-26T18:24:34.975Z,99.90
2018-09-26T18:27:02.643Z,99.90
2018-09-26T18:29:30.232Z,99.90
2018-09-26T18:31:57.701Z,99.90
2018-09-26T18:34:25.247Z,99.90
2018-09-26T18:36:52.705Z,99.90
2018-09-26T18:39:20.467Z,99.90
2018-09-26T18:41:47.921Z,99.90
2018-09-26T18:44:15.483Z,99.90
2018-09-26T18:46:43.192Z,99.90
2018-09-26T18:49:10.678Z,99.90
2018-09-26T18:51:39.800Z,99.90
2018-09-26T18:54:07.287Z,99.90
2018-09-26T18:56:34.729Z,99.90
2018-09-26T18:59:02.647Z,99.90
2018-09-26T19:01:30.343Z,99.90
2018-09-26T19:03:57.865Z,99.90
2018-09-26T19:06:25.691Z,99.90
2018-09-26T19:08:54.183Z,99.90
2018-09-26T19:11:21.708Z,99.90
2018-09-26T19:13:49.160Z,99.90
2018-09-26T19:16:16.622Z,99.90
2018-09-26T19:18:44.116Z,99.90
2018-09-26T19:21:11.657Z,99.90
2018-09-26T19:23:39.198Z,99.90
2018-09-26T19:26:06.757Z,99.90
2018-09-26T19:28:34.318Z,99.90
2018-09-26T19:31:01.876Z,99.90
2018-09-26T19:33:29.373Z,99.90
2018-09-26T19:35:56.820Z,99.90
2018-09-26T19:38:24.320Z,99.90
2018-09-26T19:40:52.421Z,99.90
2018-09-26T19:43:19.946Z,99.90
2018-09-26T19:45:47.402Z,99.90
2018-09-26T19:48:14.888Z,99.90
2018-09-26T19:50:42.354Z,99.90
2018-09-26T19:53:09.781Z,99.90
2018-09-26T19:55:37.268Z,99.90
2018-09-26T19:58:04.837Z,99.90
2018-09-26T20:00:32.354Z,99.90
2018-09-26T20:02:59.813Z,99.90
2018-09-26T20:05:27.314Z,99.90
2018-09-26T20:07:54.885Z,99.90
2018-09-26T20:10:23.267Z,99.90
2018-09-26T20:12:50.774Z,99.90
2018-09-26T20:15:18.251Z,99.90
2018-09-26T20:17:45.857Z,99.90
2018-09-26T20:20:13.405Z,99.90
2018-09-26T20:22:41.217Z,99.90
2018-09-26T20:25:08.893Z,99.90
2018-09-26T20:27:36.366Z,99.90
2018-09-26T20:30:10.209Z,99.90
2018-09-26T20:32:37.779Z,99.90
2018-09-26T20:35:05.354Z,99.90
2018-09-26T20:37:32.811Z,99.90
2018-09-26T20:40:00.371Z,99.90
2018-09-26T20:42:27.820Z,99.90
2018-09-26T20:44:55.326Z,99.90
2018-09-26T20:47:22.789Z,99.90
2018-09-26T20:49:50.928Z,99.90
2018-09-26T20:52:18.784Z,99.90
2018-09-26T20:54:46.242Z,99.90
2018-09-26T20:57:13.751Z,99.90
2018-09-26T20:59:41.475Z,99.90
2018-09-26T21:02:09.573Z,99.90
2018-09-26T21:04:37.114Z,99.90
2018-09-26T21:07:04.786Z,99.90
2018-09-26T21:09:32.260Z,99.90
2018-09-26T21:11:59.714Z,99.90
2018-09-26T21:14:27.220Z,99.90
2018-09-26T21:16:54.841Z,99.90
2018-09-26T21:19:22.460Z,99.90
2018-09-26T21:21:50.004Z,99.90
2018-09-26T21:24:17.449Z,99.90
2018-09-26T21:26:45.036Z,99.90
2018-09-26T21:29:12.464Z,99.90
2018-09-26T21:31:40.053Z,99.90
2018-09-26T21:34:07.713Z,99.90
2018-09-26T21:36:35.192Z,99.90
2018-09-26T21:39:02.913Z,99.90
2018-09-26T21:41:30.485Z,99.90
2018-09-26T21:43:58.052Z,99.90
2018-09-26T21:46:25.532Z,99.90
2018-09-26T21:48:53.170Z,99.90
2018-09-26T21:51:20.646Z,99.90
2018-09-26T21:53:48.077Z,99.90
2018-09-26T21:56:15.604Z,99.90
2018-09-26T21:58:43.097Z,99.90
2018-09-26T22:01:12.485Z,99.90
2018-09-26T22:03:40.260Z,99.90
2018-09-26T22:06:07.989Z,99.90
2018-09-26T22:08:35.791Z,99.90
2018-09-26T22:11:03.347Z,99.90
2018-09-26T22:13:30.781Z,99.90
2018-09-26T22:15:58.329Z,99.90
2018-09-26T22:18:25.776Z,99.90
2018-09-26T22:20:53.279Z,99.90
2018-09-26T22:23:20.736Z,99.90
2018-09-26T22:25:48.215Z,99.90
2018-09-26T22:28:15.877Z,99.90
2018-09-26T22:30:43.414Z,99.90
2018-09-26T22:33:10.950Z,99.90
2018-09-26T22:35:38.769Z,99.90
2018-09-26T22:38:06.420Z,99.90
2018-09-26T22:40:34.165Z,99.90
2018-09-26T22:43:01.621Z,99.90
2018-09-26T22:45:29.088Z,99.90
2018-09-26T22:47:56.554Z,99.90
2018-09-26T22:50:24.036Z,99.90
2018-09-26T22:52:51.577Z,99.90
2018-09-26T22:55:19.049Z,99.90
2018-09-26T22:57:46.498Z,99.90
2018-09-26T23:00:14.117Z,99.90
2018-09-26T23:02:41.607Z,99.90
2018-09-26T23:05:09.141Z,99.90
2018-09-26T23:07:36.700Z,99.90
2018-09-26T23:10:04.324Z,99.90
2018-09-26T23:12:31.814Z,99.90
2018-09-26T23:15:03.127Z,99.90
2018-09-26T23:17:30.617Z,99.90
2018-09-26T23:19:58.107Z,99.90
2018-09-26T23:22:25.572Z,99.90
2018-09-26T23:24:52.999Z,99.90
2018-09-26T23:27:20.497Z,99.90
2018-09-26T23:29:47.948Z,99.90
2018-09-26T23:32:15.417Z,99.90
2018-09-26T23:34:42.879Z,99.90
2018-09-26T23:37:16.856Z,99.90
2018-09-26T23:39:44.317Z,99.90
2018-09-26T23:42:11.770Z,99.90
2018-09-26T23:44:39.250Z,99.90
2018-09-26T23:47:06.764Z,99.90
2018-09-26T23:49:34.196Z,99.90
2018-09-26T23:52:01.677Z,99.90
2018-09-26T23:54:29.174Z,99.90
2018-09-26T23:56:56.692Z,99.90
2018-09-26T23:59:24.146Z,99.90
